Time;durP1;ratioP1;P1;durP2;ratioP2;P2;SDS_P1;SDS_P2;PMS_P1;PMS_P2;Temp;Humidity;BMP_temperature;BMP_pressure;BME280_temperature;BME280_humidity;BME280_pressure;Samples;Min_cycle;Max_cycle;Signal;HPM_P1;HPM_P2
2022/05/29 00:01:26;;;;;;;;;;;20.00;66.90;;;;;;5054584;28;1248;-74
2022/05/29 00:03:51;;;;;;;;;;;20.00;66.90;;;;;;5056035;28;1245;-74
2022/05/29 00:06:17;;;;;;;;;;;20.00;66.90;;;;;;5067284;28;1352;-74
2022/05/29 00:08:42;;;;;;;;;;;20.00;66.90;;;;;;5075940;28;1328;-74
2022/05/29 00:11:09;;;;;;;;;;;20.00;66.90;;;;;;5074415;28;1909;-73
2022/05/29 00:13:35;;;;;;;;;;;20.00;67.00;;;;;;5057974;28;1055;-73
2022/05/29 00:16:00;;;;;;;;;;;20.00;66.90;;;;;;5056083;28;1134;-72
2022/05/29 00:18:25;;;;;;;;;;;20.00;67.00;;;;;;5070336;28;1218;-74
2022/05/29 00:20:53;;;;;;;;;;;19.90;66.90;;;;;;5075412;28;1288;-73
2022/05/29 00:23:19;;;;;;;;;;;19.90;66.90;;;;;;5070522;28;1373;-75
2022/05/29 00:25:44;;;;;;;;;;;19.90;66.90;;;;;;5054448;28;1309;-72
2022/05/29 00:28:10;;;;;;;;;;;19.90;66.90;;;;;;5088858;28;1334;-72
2022/05/29 00:30:35;;;;;;;;;;;19.90;67.00;;;;;;5063474;28;1963;-72
2022/05/29 00:33:01;;;;;;;;;;;19.90;67.00;;;;;;5055532;28;1324;-72
2022/05/29 00:35:26;;;;;;;;;;;19.90;67.00;;;;;;5054196;28;1603;-72
2022/05/29 00:37:52;;;;;;;;;;;19.90;67.00;;;;;;5054236;28;1103;-74
2022/05/29 00:40:33;;;;;;;;;;;19.90;67.20;;;;;;5054051;28;1299;-72
2022/05/29 00:42:58;;;;;;;;;;;19.90;67.10;;;;;;5054174;28;1356;-72
2022/05/29 00:45:24;;;;;;;;;;;19.90;67.00;;;;;;5054115;28;1299;-75
2022/05/29 00:47:50;;;;;;;;;;;19.90;67.00;;;;;;5053778;28;1554;-74
2022/05/29 00:50:19;;;;;;;;;;;19.90;67.00;;;;;;5054903;28;1906;-74
2022/05/29 00:52:44;;;;;;;;;;;19.90;67.10;;;;;;5053920;28;1324;-71
2022/05/29 00:55:12;;;;;;;;;;;19.90;67.00;;;;;;5055200;28;1340;-73
2022/05/29 00:57:39;;;;;;;;;;;19.90;67.10;;;;;;5069781;28;1941;-72
2022/05/29 01:00:06;;;;;;;;;;;19.90;67.10;;;;;;5043547;28;1308;-72
2022/05/29 01:02:32;;;;;;;;;;;19.90;67.10;;;;;;5052595;28;1349;-74
2022/05/29 01:04:57;;;;;;;;;;;19.90;67.10;;;;;;5059266;28;1325;-73
2022/05/29 01:07:23;;;;;;;;;;;19.90;67.10;;;;;;5058155;28;1361;-73
2022/05/29 01:09:48;;;;;;;;;;;19.90;67.10;;;;;;5082740;28;1917;-74
2022/05/29 01:12:18;;;;;;;;;;;19.90;67.10;;;;;;5067570;28;1311;-72
2022/05/29 01:14:51;;;;;;;;;;;19.90;67.10;;;;;;5053456;28;1307;-73
2022/05/29 01:17:19;;;;;;;;;;;19.90;67.20;;;;;;5042261;28;1250;-73
2022/05/29 01:19:50;;;;;;;;;;;19.90;67.20;;;;;;5068931;28;1205;-73
2022/05/29 01:22:25;;;;;;;;;;;19.90;67.20;;;;;;5074637;28;1264;-73
2022/05/29 01:24:53;;;;;;;;;;;19.90;67.20;;;;;;5074583;28;1387;-72
2022/05/29 01:27:32;;;;;;;;;;;19.80;67.20;;;;;;5063421;28;1167;-72
2022/05/29 01:30:13;;;;;;;;;;;19.90;67.20;;;;;;5052895;28;1906;-74
2022/05/29 01:32:56;;;;;;;;;;;19.80;67.20;;;;;;5054420;28;1051;-74
2022/05/29 01:35:22;;;;;;;;;;;19.90;67.20;;;;;;5054921;28;1712;-74
2022/05/29 01:37:53;;;;;;;;;;;19.80;67.20;;;;;;5053044;28;1084;-75
2022/05/29 01:40:24;;;;;;;;;;;19.80;67.20;;;;;;5045853;28;1284;-74
2022/05/29 01:42:57;;;;;;;;;;;19.80;67.20;;;;;;5055935;28;1107;-74
2022/05/29 01:45:26;;;;;;;;;;;19.90;67.30;;;;;;5064765;28;1092;-74
2022/05/29 01:47:56;;;;;;;;;;;19.80;67.20;;;;;;5072946;28;1387;-74
2022/05/29 01:50:27;;;;;;;;;;;19.80;67.20;;;;;;5072347;28;1895;-73
2022/05/29 01:52:54;;;;;;;;;;;19.80;67.20;;;;;;5067428;28;1054;-73
2022/05/29 01:55:27;;;;;;;;;;;19.80;67.20;;;;;;5052663;28;1157;-73
2022/05/29 01:57:53;;;;;;;;;;;19.80;67.20;;;;;;5052758;28;1131;-73
2022/05/29 02:00:20;;;;;;;;;;;19.80;67.20;;;;;;5052007;22;3719;-70
2022/05/29 02:03:05;;;;;;;;;;;19.80;67.20;;;;;;5054689;28;941;-71
2022/05/29 02:05:33;;;;;;;;;;;19.80;67.20;;;;;;5055711;28;1310;-70
2022/05/29 02:08:15;;;;;;;;;;;19.80;67.20;;;;;;5048349;28;1188;-70
2022/05/29 02:10:48;;;;;;;;;;;19.90;67.30;;;;;;5040773;28;1981;-70
2022/05/29 02:13:20;;;;;;;;;;;19.80;67.30;;;;;;5046050;28;1184;-71
2022/05/29 02:15:48;;;;;;;;;;;19.80;67.20;;;;;;5034588;28;1259;-71
2022/05/29 02:18:37;;;;;;;;;;;19.80;67.30;;;;;;5036046;28;1260;-71
2022/05/29 02:21:04;;;;;;;;;;;19.80;67.30;;;;;;5042387;28;1349;-72
2022/05/29 02:23:34;;;;;;;;;;;19.80;67.30;;;;;;5034709;28;1287;-72
2022/05/29 02:26:00;;;;;;;;;;;19.80;67.20;;;;;;5035090;28;1068;-72
2022/05/29 02:28:27;;;;;;;;;;;19.80;67.30;;;;;;5035385;28;1325;-71
2022/05/29 02:30:55;;;;;;;;;;;19.80;67.30;;;;;;5034503;28;1915;-71
2022/05/29 02:33:32;;;;;;;;;;;19.80;67.30;;;;;;5035042;28;1163;-71
2022/05/29 02:36:19;;;;;;;;;;;19.80;67.30;;;;;;5036866;28;1632;-71
2022/05/29 02:38:45;;;;;;;;;;;19.80;67.30;;;;;;5037183;28;1052;-71
2022/05/29 02:41:13;;;;;;;;;;;19.80;67.30;;;;;;5033958;28;1246;-71
2022/05/29 02:43:42;;;;;;;;;;;19.80;67.30;;;;;;5051935;28;1317;-71
2022/05/29 02:46:11;;;;;;;;;;;19.80;67.30;;;;;;5052949;28;1278;-71
2022/05/29 02:48:41;;;;;;;;;;;19.80;67.30;;;;;;5034676;28;1104;-71
2022/05/29 02:51:07;;;;;;;;;;;19.80;67.20;;;;;;5033925;28;1910;-71
2022/05/29 02:53:32;;;;;;;;;;;19.80;67.30;;;;;;5052510;28;1123;-70
2022/05/29 02:55:58;;;;;;;;;;;19.80;67.30;;;;;;5052559;28;1419;-70
2022/05/29 02:58:24;;;;;;;;;;;19.80;67.30;;;;;;5052536;28;1064;-70
2022/05/29 03:00:56;;;;;;;;;;;19.80;67.30;;;;;;5033979;28;1288;-71
2022/05/29 03:03:41;;;;;;;;;;;19.80;67.30;;;;;;5034223;28;1306;-70
2022/05/29 03:06:17;;;;;;;;;;;19.80;67.30;;;;;;5011614;28;1075;-71
2022/05/29 03:08:51;;;;;;;;;;;19.80;67.30;;;;;;5051392;28;1075;-70
2022/05/29 03:11:30;;;;;;;;;;;19.80;67.20;;;;;;5033939;28;1906;-70
2022/05/29 03:14:01;;;;;;;;;;;19.80;67.30;;;;;;5021182;28;1330;-70
2022/05/29 03:16:36;;;;;;;;;;;19.80;67.30;;;;;;5034800;28;1251;-70
2022/05/29 03:19:01;;;;;;;;;;;19.80;67.30;;;;;;5051906;28;1151;-71
2022/05/29 03:21:39;;;;;;;;;;;19.80;67.30;;;;;;5051856;28;1287;-70
2022/05/29 03:24:07;;;;;;;;;;;19.80;67.30;;;;;;5052426;28;1308;-70
2022/05/29 03:26:38;;;;;;;;;;;19.80;67.30;;;;;;5052905;28;1359;-70
2022/05/29 03:29:03;;;;;;;;;;;19.80;67.40;;;;;;5038394;28;1099;-70
2022/05/29 03:31:29;;;;;;;;;;;19.80;67.30;;;;;;5055834;28;1898;-70
2022/05/29 03:33:54;;;;;;;;;;;19.80;67.40;;;;;;5038383;28;1080;-71
2022/05/29 03:36:20;;;;;;;;;;;19.80;67.40;;;;;;5036767;28;1869;-71
2022/05/29 03:38:45;;;;;;;;;;;19.80;67.30;;;;;;5055515;28;963;-70
2022/05/29 03:41:12;;;;;;;;;;;19.80;67.20;;;;;;5047210;28;1302;-69
2022/05/29 03:43:37;;;;;;;;;;;19.80;67.30;;;;;;5038077;28;1237;-69
2022/05/29 03:46:03;;;;;;;;;;;19.80;67.20;;;;;;5055962;28;1075;-70
2022/05/29 03:48:30;;;;;;;;;;;19.80;67.20;;;;;;5055995;28;1261;-70
2022/05/29 03:50:55;;;;;;;;;;;19.90;67.20;;;;;;5037899;28;1969;-70
2022/05/29 03:53:21;;;;;;;;;;;19.90;67.10;;;;;;5038038;28;1279;-70
2022/05/29 03:55:46;;;;;;;;;;;20.00;67.00;;;;;;5055995;28;1056;-70
2022/05/29 03:58:11;;;;;;;;;;;20.00;66.80;;;;;;5038304;28;1272;-70
2022/05/29 04:00:37;;;;;;;;;;;20.10;66.70;;;;;;5055387;28;1382;-71
2022/05/29 04:03:02;;;;;;;;;;;20.10;66.70;;;;;;5056198;28;1295;-72
2022/05/29 04:05:28;;;;;;;;;;;20.10;66.50;;;;;;5055793;28;1345;-71
2022/05/29 04:13:23;;;;;;;;;;;20.20;66.10;;;;;;5055539;28;1111;-71
2022/05/29 04:15:49;;;;;;;;;;;20.20;66.00;;;;;;5055635;28;1365;-71
2022/05/29 04:18:15;;;;;;;;;;;20.20;66.00;;;;;;5055091;28;1415;-71
2022/05/29 04:20:41;;;;;;;;;;;20.20;65.90;;;;;;5035248;28;2057;-70
2022/05/29 04:23:06;;;;;;;;;;;20.30;66.00;;;;;;5052407;28;1143;-70
2022/05/29 04:25:32;;;;;;;;;;;20.20;65.80;;;;;;5043471;28;1600;-70
2022/05/29 04:27:57;;;;;;;;;;;20.30;65.80;;;;;;5048559;28;1176;-71
2022/05/29 04:30:23;;;;;;;;;;;20.30;65.80;;;;;;5053377;28;1894;-69
2022/05/29 04:33:00;;;;;;;;;;;20.30;65.80;;;;;;5053173;28;1263;-71
2022/05/29 04:35:29;;;;;;;;;;;20.30;65.80;;;;;;5054101;28;883;-71
2022/05/29 04:37:54;;;;;;;;;;;20.30;65.80;;;;;;5034711;28;2216;-71
2022/05/29 04:40:20;;;;;;;;;;;20.30;65.80;;;;;;5044556;28;1300;-72
2022/05/29 04:42:45;;;;;;;;;;;20.30;65.80;;;;;;5016780;28;973;-72
2022/05/29 04:45:11;;;;;;;;;;;20.30;65.80;;;;;;5034140;28;959;-71
2022/05/29 04:47:36;;;;;;;;;;;20.30;65.80;;;;;;5016374;28;995;-72
2022/05/29 04:50:02;;;;;;;;;;;20.30;65.80;;;;;;5015795;28;1891;-72
2022/05/29 04:52:29;;;;;;;;;;;20.30;65.80;;;;;;5016544;28;930;-70
2022/05/29 04:54:54;;;;;;;;;;;20.30;65.80;;;;;;5034001;28;841;-70
2022/05/29 04:57:20;;;;;;;;;;;20.20;65.80;;;;;;5016371;28;869;-69
2022/05/29 04:59:45;;;;;;;;;;;20.30;65.90;;;;;;5033711;28;920;-69
2022/05/29 05:02:11;;;;;;;;;;;20.20;65.80;;;;;;5033395;28;1202;-68
2022/05/29 05:04:36;;;;;;;;;;;20.20;65.80;;;;;;5033806;28;703;-69
2022/05/29 05:07:02;;;;;;;;;;;20.20;65.80;;;;;;5033787;28;797;-69
2022/05/29 05:09:27;;;;;;;;;;;20.20;65.90;;;;;;5014165;28;1385;-71
2022/05/29 05:11:53;;;;;;;;;;;20.20;65.90;;;;;;5031129;28;1969;-72
2022/05/29 05:14:19;;;;;;;;;;;20.20;65.90;;;;;;5033658;28;1002;-72
2022/05/29 05:16:45;;;;;;;;;;;20.20;66.00;;;;;;5043079;28;1315;-73
2022/05/29 05:19:10;;;;;;;;;;;20.20;66.00;;;;;;5040729;28;1147;-69
2022/05/29 05:21:36;;;;;;;;;;;20.20;66.00;;;;;;5032981;28;1221;-69
2022/05/29 05:24:03;;;;;;;;;;;20.20;66.00;;;;;;5033634;28;860;-70
2022/05/29 05:26:28;;;;;;;;;;;20.20;66.10;;;;;;5052256;28;1106;-70
2022/05/29 05:28:54;;;;;;;;;;;20.20;66.10;;;;;;5043883;28;1227;-67
2022/05/29 05:31:19;;;;;;;;;;;20.20;66.10;;;;;;5052582;28;1906;-68
2022/05/29 05:33:45;;;;;;;;;;;20.20;66.10;;;;;;5052299;28;1057;-68
2022/05/29 05:36:11;;;;;;;;;;;20.20;66.10;;;;;;5053116;28;971;-68
2022/05/29 05:38:37;;;;;;;;;;;20.20;66.10;;;;;;5035111;28;1189;-67
2022/05/29 05:41:02;;;;;;;;;;;20.20;66.20;;;;;;5051130;28;1297;-68
2022/05/29 05:43:28;;;;;;;;;;;20.10;66.10;;;;;;5052893;28;963;-69
2022/05/29 05:45:53;;;;;;;;;;;20.10;66.10;;;;;;5053158;28;841;-70
2022/05/29 05:48:18;;;;;;;;;;;20.10;66.10;;;;;;5051747;28;974;-67
2022/05/29 05:50:44;;;;;;;;;;;20.10;66.20;;;;;;5052180;28;1926;-67
2022/05/29 05:53:09;;;;;;;;;;;20.10;66.20;;;;;;5052129;28;886;-69
2022/05/29 05:55:36;;;;;;;;;;;20.10;66.20;;;;;;5053833;28;1038;-69
2022/05/29 05:58:02;;;;;;;;;;;20.10;66.30;;;;;;5051846;28;840;-68
2022/05/29 06:00:28;;;;;;;;;;;20.10;66.30;;;;;;5034526;28;1351;-70
2022/05/29 06:02:53;;;;;;;;;;;20.10;66.30;;;;;;5032048;28;1335;-70
2022/05/29 06:05:19;;;;;;;;;;;20.10;67.10;;;;;;5041166;28;1728;-69
2022/05/29 06:07:44;;;;;;;;;;;20.10;66.30;;;;;;5050261;28;1385;-69
2022/05/29 06:10:09;;;;;;;;;;;20.10;66.30;;;;;;5051687;28;1971;-69
2022/05/29 06:12:36;;;;;;;;;;;20.10;66.40;;;;;;5047960;28;1184;-69
2022/05/29 06:15:03;;;;;;;;;;;20.10;66.40;;;;;;5031916;28;881;-70
2022/05/29 06:17:29;;;;;;;;;;;20.10;66.40;;;;;;5032534;28;836;-69
2022/05/29 06:19:55;;;;;;;;;;;20.10;66.40;;;;;;5050265;28;1377;-71
2022/05/29 06:22:21;;;;;;;;;;;20.10;66.50;;;;;;5051376;28;1337;-71
2022/05/29 06:24:46;;;;;;;;;;;20.10;66.40;;;;;;5055907;28;1258;-70
2022/05/29 06:27:11;;;;;;;;;;;20.00;66.40;;;;;;5054680;28;1122;-69
2022/05/29 06:29:37;;;;;;;;;;;20.00;66.40;;;;;;5052035;28;928;-68
2022/05/29 06:32:03;;;;;;;;;;;20.00;66.40;;;;;;5051577;28;1955;-69
2022/05/29 06:34:29;;;;;;;;;;;20.00;66.50;;;;;;5050550;28;1094;-69
2022/05/29 06:36:55;;;;;;;;;;;20.00;66.50;;;;;;5052024;28;683;-68
2022/05/29 06:39:22;;;;;;;;;;;20.00;66.50;;;;;;5047292;28;898;-68
2022/05/29 06:41:47;;;;;;;;;;;20.00;66.50;;;;;;5030221;28;1341;-69
2022/05/29 06:44:13;;;;;;;;;;;20.00;66.50;;;;;;5041564;28;906;-70
2022/05/29 06:46:38;;;;;;;;;;;20.00;66.60;;;;;;5050503;28;776;-70
2022/05/29 06:49:04;;;;;;;;;;;20.00;66.60;;;;;;5050617;28;892;-70
2022/05/29 06:51:29;;;;;;;;;;;20.00;66.60;;;;;;5049690;28;1980;-70
2022/05/29 06:53:56;;;;;;;;;;;20.00;66.60;;;;;;5050523;28;857;-70
2022/05/29 06:56:21;;;;;;;;;;;20.00;66.70;;;;;;5053342;28;1000;-70
2022/05/29 06:58:47;;;;;;;;;;;20.00;66.70;;;;;;5046901;28;1309;-69
2022/05/29 07:06:59;;;;;;;;;;;20.00;66.70;;;;;;5042801;28;998;-70
2022/05/29 07:09:29;;;;;;;;;;;20.00;66.80;;;;;;5052561;28;959;-70
2022/05/29 07:11:56;;;;;;;;;;;19.90;66.70;;;;;;5047319;28;1984;-69
2022/05/29 07:14:21;;;;;;;;;;;19.90;66.70;;;;;;5017077;28;1657;-69
2022/05/29 07:16:46;;;;;;;;;;;19.90;66.70;;;;;;5016637;28;2493;-68
2022/05/29 07:19:13;;;;;;;;;;;19.90;66.80;;;;;;5038594;28;1076;-68
2022/05/29 07:21:39;;;;;;;;;;;19.90;67.50;;;;;;5046745;28;1294;-68
2022/05/29 07:24:04;;;;;;;;;;;19.90;66.80;;;;;;5050125;28;755;-69
2022/05/29 07:26:30;;;;;;;;;;;19.90;66.80;;;;;;5043987;28;1122;-68
2022/05/29 07:28:55;;;;;;;;;;;19.90;66.80;;;;;;5031216;28;805;-69
2022/05/29 07:31:22;;;;;;;;;;;19.90;66.80;;;;;;5046242;28;1995;-68
2022/05/29 07:33:47;;;;;;;;;;;19.90;66.90;;;;;;5031954;28;825;-69
2022/05/29 07:36:13;;;;;;;;;;;19.90;66.90;;;;;;5047028;28;867;-68
2022/05/29 07:38:38;;;;;;;;;;;19.90;66.90;;;;;;5047914;28;873;-69
2022/05/29 07:43:18;;;;;;;;;;;19.90;66.90;;;;;;5032238;28;1302;-68
2022/05/29 07:43:51;;;;;;;;;;;19.90;66.90;;;;;;5045092;28;1142;-69
2022/05/29 07:46:16;;;;;;;;;;;19.90;66.90;;;;;;5047494;28;852;-68
2022/05/29 07:48:42;;;;;;;;;;;19.90;66.90;;;;;;5047782;28;786;-68
2022/05/29 07:51:07;;;;;;;;;;;19.90;66.90;;;;;;5031851;28;1898;-69
2022/05/29 07:53:33;;;;;;;;;;;19.90;67.00;;;;;;5032557;28;762;-68
2022/05/29 07:55:58;;;;;;;;;;;19.80;66.90;;;;;;5047790;28;861;-68
2022/05/29 07:58:24;;;;;;;;;;;19.80;66.90;;;;;;5047265;28;948;-68
2022/05/29 08:00:49;;;;;;;;;;;19.80;66.90;;;;;;5074099;22;1956;-70
2022/05/29 08:03:14;;;;;;;;;;;19.80;66.90;;;;;;5063472;28;1709;-70
2022/05/29 08:05:41;;;;;;;;;;;19.80;66.90;;;;;;5070941;28;1069;-73
2022/05/29 08:08:08;;;;;;;;;;;19.80;66.90;;;;;;5071005;28;1333;-73
2022/05/29 08:10:34;;;;;;;;;;;19.80;67.00;;;;;;5054083;28;1914;-71
2022/05/29 08:12:59;;;;;;;;;;;19.80;67.00;;;;;;5073350;28;1158;-72
2022/05/29 08:15:25;;;;;;;;;;;19.90;67.10;;;;;;5057780;28;1283;-72
2022/05/29 08:17:50;;;;;;;;;;;19.80;67.00;;;;;;5075814;28;1115;-73
2022/05/29 08:20:16;;;;;;;;;;;19.80;67.00;;;;;;5057832;28;832;-71
2022/05/29 08:22:41;;;;;;;;;;;19.80;67.10;;;;;;5057928;28;1279;-70
2022/05/29 08:30:38;;;;;;;;;;;19.80;67.10;;;;;;5079944;28;1898;-73
2022/05/29 08:33:08;;;;;;;;;;;19.80;67.10;;;;;;5078352;28;883;-73
2022/05/29 08:35:33;;;;;;;;;;;19.80;67.10;;;;;;5077797;28;895;-72
2022/05/29 08:37:59;;;;;;;;;;;19.80;67.20;;;;;;5077867;28;841;-72
2022/05/29 08:40:25;;;;;;;;;;;19.80;67.20;;;;;;5095572;28;726;-73
2022/05/29 08:42:50;;;;;;;;;;;19.80;67.20;;;;;;5077579;28;1188;-71
2022/05/29 08:45:16;;;;;;;;;;;19.80;67.20;;;;;;5095632;28;908;-72
2022/05/29 08:47:45;;;;;;;;;;;19.80;67.20;;;;;;5095722;28;785;-73
2022/05/29 08:50:31;;;;;;;;;;;19.80;67.20;;;;;;5077510;28;1898;-71
2022/05/29 08:53:06;;;;;;;;;;;19.80;67.20;;;;;;5076582;28;1307;-71
2022/05/29 08:55:34;;;;;;;;;;;19.80;67.30;;;;;;5077341;28;1082;-73
2022/05/29 08:58:13;;;;;;;;;;;19.80;67.70;;;;;;5095451;28;1007;-72
2022/05/29 09:00:47;;;;;;;;;;;19.80;67.30;;;;;;5094830;28;1192;-73
2022/05/29 09:03:31;;;;;;;;;;;19.70;67.20;;;;;;5058272;28;1127;-73
2022/05/29 09:06:03;;;;;;;;;;;19.70;67.30;;;;;;5074968;28;809;-73
2022/05/29 09:08:37;;;;;;;;;;;19.80;67.40;;;;;;5057224;28;1128;-73
2022/05/29 09:11:07;;;;;;;;;;;19.80;67.40;;;;;;5040132;28;1981;-73
2022/05/29 09:13:37;;;;;;;;;;;19.70;67.30;;;;;;5057293;28;1058;-73
2022/05/29 09:16:13;;;;;;;;;;;19.70;67.40;;;;;;5057267;28;1190;-73
2022/05/29 09:18:40;;;;;;;;;;;19.70;67.30;;;;;;5065168;28;1123;-73
2022/05/29 09:21:06;;;;;;;;;;;19.70;67.40;;;;;;5076448;28;1205;-73
2022/05/29 09:23:33;;;;;;;;;;;19.70;67.40;;;;;;5076943;28;1211;-73
2022/05/29 09:25:58;;;;;;;;;;;19.70;67.40;;;;;;5073034;28;1113;-73
2022/05/29 09:28:37;;;;;;;;;;;19.70;67.40;;;;;;5056817;28;865;-73
2022/05/29 09:31:05;;;;;;;;;;;19.70;67.40;;;;;;5056220;28;1969;-73
2022/05/29 09:33:30;;;;;;;;;;;19.70;67.40;;;;;;5056723;28;1022;-73
2022/05/29 09:35:56;;;;;;;;;;;19.70;67.40;;;;;;5056401;28;805;-73
2022/05/29 09:38:41;;;;;;;;;;;19.70;67.40;;;;;;5074327;28;887;-73
2022/05/29 09:41:11;;;;;;;;;;;19.70;67.50;;;;;;5056136;28;1209;-72
2022/05/29 09:43:37;;;;;;;;;;;19.70;67.40;;;;;;5040118;28;1268;-72
2022/05/29 09:46:16;;;;;;;;;;;19.70;67.50;;;;;;5074060;28;691;-72
2022/05/29 09:51:29;;;;;;;;;;;19.70;67.50;;;;;;5058437;28;1898;-73
2022/05/29 09:53:58;;;;;;;;;;;19.70;67.50;;;;;;5056119;28;885;-73
2022/05/29 09:56:28;;;;;;;;;;;19.70;67.50;;;;;;5056242;28;1006;-73
2022/05/29 09:59:02;;;;;;;;;;;19.70;67.50;;;;;;5056219;28;888;-73
2022/05/29 10:01:36;;;;;;;;;;;19.60;67.50;;;;;;5055735;28;1237;-72
2022/05/29 10:04:03;;;;;;;;;;;19.60;67.50;;;;;;5055953;28;844;-72
2022/05/29 10:06:30;;;;;;;;;;;19.70;67.50;;;;;;5056027;28;805;-73
2022/05/29 10:09:13;;;;;;;;;;;19.70;67.50;;;;;;5055870;28;782;-73
2022/05/29 10:11:39;;;;;;;;;;;19.60;67.50;;;;;;5073324;28;1906;-73
2022/05/29 10:14:17;;;;;;;;;;;19.70;67.60;;;;;;5039207;28;1210;-73
2022/05/29 10:16:42;;;;;;;;;;;19.60;67.50;;;;;;5071503;28;1754;-72
2022/05/29 10:19:14;;;;;;;;;;;19.60;67.50;;;;;;5042277;28;1343;-73
2022/05/29 10:21:44;;;;;;;;;;;19.60;67.50;;;;;;5055558;28;1224;-72
2022/05/29 10:24:13;;;;;;;;;;;19.60;67.50;;;;;;5052198;28;1518;-72
2022/05/29 10:26:39;;;;;;;;;;;19.60;67.50;;;;;;5064190;28;1320;-72
2022/05/29 10:29:33;;;;;;;;;;;19.60;67.50;;;;;;5093094;28;809;-73
2022/05/29 10:32:00;;;;;;;;;;;19.60;67.50;;;;;;5075327;28;1969;-72
2022/05/29 10:34:29;;;;;;;;;;;19.60;67.50;;;;;;5075636;28;1355;-73
2022/05/29 10:36:54;;;;;;;;;;;19.60;67.60;;;;;;5053042;28;1147;-74
2022/05/29 10:39:27;;;;;;;;;;;19.60;67.60;;;;;;5072906;28;904;-73
2022/05/29 10:41:54;;;;;;;;;;;19.60;67.60;;;;;;5038550;28;1400;-73
2022/05/29 10:44:40;;;;;;;;;;;19.60;67.60;;;;;;5055556;28;774;-73
2022/05/29 10:47:07;;;;;;;;;;;19.60;67.60;;;;;;5052659;28;1350;-73
2022/05/29 10:49:35;;;;;;;;;;;19.60;67.70;;;;;;5055019;28;951;-74
2022/05/29 10:52:07;;;;;;;;;;;19.60;67.60;;;;;;5054622;28;1894;-73
2022/05/29 10:54:40;;;;;;;;;;;19.60;67.60;;;;;;5072643;28;883;-73
2022/05/29 10:57:14;;;;;;;;;;;19.60;67.70;;;;;;5055179;28;1085;-73
2022/05/29 10:59:40;;;;;;;;;;;19.60;67.70;;;;;;5072541;28;1066;-72
2022/05/29 11:05:17;;;;;;;;;;;19.60;67.70;;;;;;5072967;28;691;-72
2022/05/29 11:08:01;;;;;;;;;;;19.60;67.70;;;;;;5072964;28;927;-72
2022/05/29 11:10:45;;;;;;;;;;;19.60;67.70;;;;;;5072498;28;1972;-72
2022/05/29 11:13:11;;;;;;;;;;;19.60;67.70;;;;;;5054738;28;1221;-72
2022/05/29 11:15:55;;;;;;;;;;;19.60;67.70;;;;;;5072817;28;1030;-73
2022/05/29 11:18:32;;;;;;;;;;;19.60;67.70;;;;;;5054856;28;1146;-71
2022/05/29 11:21:02;;;;;;;;;;;19.60;67.70;;;;;;5072078;28;1300;-73
2022/05/29 11:23:40;;;;;;;;;;;19.60;67.70;;;;;;5072672;28;836;-73
2022/05/29 11:26:17;;;;;;;;;;;19.60;67.70;;;;;;5058847;28;1378;-73
2022/05/29 11:28:42;;;;;;;;;;;19.60;67.80;;;;;;5074822;28;805;-73
2022/05/29 11:31:16;;;;;;;;;;;19.60;67.70;;;;;;5092044;28;1906;-73
2022/05/29 11:34:00;;;;;;;;;;;19.60;67.70;;;;;;5092787;28;991;-73
2022/05/29 11:36:28;;;;;;;;;;;19.60;67.70;;;;;;5092880;28;833;-73
2022/05/29 11:39:13;;;;;;;;;;;19.60;67.70;;;;;;5092562;28;1030;-72
2022/05/29 11:41:43;;;;;;;;;;;19.60;67.70;;;;;;5092505;28;1212;-72
2022/05/29 11:44:15;;;;;;;;;;;19.60;67.70;;;;;;5092252;28;785;-73
2022/05/29 11:52:30;;;;;;;;;;;19.60;67.70;;;;;;5096525;28;1898;-73
2022/05/29 11:55:03;;;;;;;;;;;19.60;67.80;;;;;;5078468;28;947;-73
2022/05/29 11:57:35;;;;;;;;;;;19.60;67.80;;;;;;5078433;28;1306;-76
2022/05/29 12:00:03;;;;;;;;;;;19.60;67.80;;;;;;5096170;28;808;-72
2022/05/29 12:02:41;;;;;;;;;;;19.60;67.80;;;;;;5061596;28;1279;-73
2022/05/29 12:05:06;;;;;;;;;;;19.60;67.80;;;;;;5078222;28;1179;-73
2022/05/29 12:07:34;;;;;;;;;;;19.60;67.80;;;;;;5096554;28;998;-72
2022/05/29 12:10:20;;;;;;;;;;;19.60;67.80;;;;;;5077698;28;879;-73
2022/05/29 12:13:02;;;;;;;;;;;19.60;67.80;;;;;;5067835;28;1213;-73
2022/05/29 12:15:28;;;;;;;;;;;19.50;67.70;;;;;;5058376;28;840;-73
2022/05/29 12:17:57;;;;;;;;;;;19.60;67.80;;;;;;5059889;28;1122;-73
2022/05/29 12:20:23;;;;;;;;;;;19.50;67.70;;;;;;5077827;28;859;-72
2022/05/29 12:22:49;;;;;;;;;;;19.60;67.80;;;;;;5096136;28;1181;-72
2022/05/29 12:25:20;;;;;;;;;;;19.50;67.70;;;;;;5067773;28;1363;-72
2022/05/29 12:27:46;;;;;;;;;;;19.60;67.80;;;;;;5072370;28;1765;-72
2022/05/29 12:30:14;;;;;;;;;;;19.60;67.80;;;;;;5057591;28;1906;-72
2022/05/29 12:32:39;;;;;;;;;;;19.50;67.80;;;;;;5054040;28;1267;-72
2022/05/29 12:35:09;;;;;;;;;;;19.60;67.80;;;;;;5070000;28;1103;-72
2022/05/29 12:37:40;;;;;;;;;;;19.60;67.80;;;;;;5057821;28;1335;-72
2022/05/29 12:40:24;;;;;;;;;;;19.60;67.80;;;;;;5075540;28;1045;-70
2022/05/29 12:43:09;;;;;;;;;;;19.50;67.70;;;;;;5075298;28;1306;-70
2022/05/29 12:45:49;;;;;;;;;;;19.50;67.80;;;;;;5061808;28;1207;-70
2022/05/29 12:48:34;;;;;;;;;;;19.60;67.90;;;;;;5067922;28;949;-70
2022/05/29 12:51:02;;;;;;;;;;;19.50;67.80;;;;;;5082490;28;1898;-70
2022/05/29 12:53:33;;;;;;;;;;;19.50;67.80;;;;;;5082729;28;1027;-71
2022/05/29 12:56:17;;;;;;;;;;;19.50;67.80;;;;;;5095832;28;912;-71
2022/05/29 12:58:49;;;;;;;;;;;19.50;67.80;;;;;;5095188;28;860;-70
2022/05/29 13:01:21;;;;;;;;;;;19.50;67.80;;;;;;5076303;28;1290;-72
2022/05/29 13:03:55;;;;;;;;;;;19.50;67.90;;;;;;5052300;28;1204;-72
2022/05/29 13:06:20;;;;;;;;;;;19.50;67.80;;;;;;5054375;28;836;-72
2022/05/29 13:08:59;;;;;;;;;;;19.50;67.80;;;;;;5055213;28;833;-72
2022/05/29 13:11:25;;;;;;;;;;;19.50;67.80;;;;;;5053720;28;2185;-72
2022/05/29 13:13:53;;;;;;;;;;;19.50;67.80;;;;;;5039866;28;1281;-73
2022/05/29 13:16:26;;;;;;;;;;;19.50;67.80;;;;;;5074731;28;1350;-71
2022/05/29 13:21:52;;;;;;;;;;;19.50;67.80;;;;;;5064334;28;1885;-72
2022/05/29 13:24:23;;;;;;;;;;;19.50;67.90;;;;;;5037066;28;1068;-72
2022/05/29 13:27:08;;;;;;;;;;;19.50;67.90;;;;;;5056821;28;1221;-71
2022/05/29 13:29:42;;;;;;;;;;;19.50;67.80;;;;;;5094982;28;872;-71
2022/05/29 13:32:13;;;;;;;;;;;19.50;67.80;;;;;;5076221;28;1890;-73
2022/05/29 13:34:39;;;;;;;;;;;19.50;67.90;;;;;;5095108;28;817;-75
2022/05/29 13:37:09;;;;;;;;;;;19.50;67.80;;;;;;5076080;28;1880;-73
2022/05/29 13:39:54;;;;;;;;;;;19.50;67.80;;;;;;5057394;28;1235;-74
2022/05/29 13:42:19;;;;;;;;;;;19.50;67.80;;;;;;5055666;28;2064;-74
2022/05/29 13:44:45;;;;;;;;;;;19.50;67.80;;;;;;5073901;28;1056;-74
2022/05/29 13:47:20;;;;;;;;;;;19.50;67.90;;;;;;5055410;28;1248;-74
2022/05/29 13:50:14;;;;;;;;;;;19.50;67.80;;;;;;5060332;28;1235;-72
2022/05/29 13:52:50;;;;;;;;;;;19.50;67.90;;;;;;5046548;28;2175;-72
2022/05/29 13:55:19;;;;;;;;;;;19.50;67.90;;;;;;5055791;28;1304;-76
2022/05/29 14:03:58;;;;;;;;;;;19.50;67.90;;;;;;5072924;22;3734;-73
2022/05/29 14:06:39;;;;;;;;;;;19.50;67.90;;;;;;5034048;28;824;-74
2022/05/29 14:09:11;;;;;;;;;;;19.50;67.90;;;;;;5032708;28;922;-75
2022/05/29 14:11:44;;;;;;;;;;;19.50;67.90;;;;;;5033850;28;1906;-75
2022/05/29 14:14:28;;;;;;;;;;;19.50;67.90;;;;;;5035821;28;1042;-75
2022/05/29 14:16:54;;;;;;;;;;;19.50;67.90;;;;;;5053693;28;1055;-74
2022/05/29 14:19:19;;;;;;;;;;;19.50;67.90;;;;;;5035775;28;1190;-75
2022/05/29 14:21:44;;;;;;;;;;;19.50;68.00;;;;;;5053272;28;1279;-74
2022/05/29 14:24:27;;;;;;;;;;;19.50;67.90;;;;;;5053502;28;828;-74
2022/05/29 14:26:59;;;;;;;;;;;19.50;68.00;;;;;;5029854;28;1241;-74
2022/05/29 14:29:28;;;;;;;;;;;19.50;67.90;;;;;;5073529;28;919;-74
2022/05/29 14:32:02;;;;;;;;;;;19.50;68.00;;;;;;5073265;28;1965;-73
2022/05/29 14:34:37;;;;;;;;;;;19.50;68.00;;;;;;5073253;28;962;-74
2022/05/29 14:37:17;;;;;;;;;;;19.50;68.00;;;;;;5073079;28;911;-74
2022/05/29 14:39:57;;;;;;;;;;;19.50;68.00;;;;;;5055377;28;1006;-74
2022/05/29 14:42:24;;;;;;;;;;;19.50;68.00;;;;;;5073101;28;1212;-74
2022/05/29 14:45:03;;;;;;;;;;;19.50;68.00;;;;;;5055283;28;806;-74
2022/05/29 14:47:42;;;;;;;;;;;19.50;68.00;;;;;;5073202;28;935;-74
2022/05/29 14:50:09;;;;;;;;;;;19.50;68.00;;;;;;5055008;28;1902;-74
2022/05/29 14:52:55;;;;;;;;;;;19.50;68.00;;;;;;5072883;28;1212;-74
2022/05/29 14:55:26;;;;;;;;;;;19.50;68.00;;;;;;5072903;28;876;-73
2022/05/29 14:57:53;;;;;;;;;;;19.50;68.00;;;;;;5055248;28;888;-74
2022/05/29 15:00:22;;;;;;;;;;;19.50;68.00;;;;;;5055108;28;754;-74
2022/05/29 15:02:48;;;;;;;;;;;19.50;68.00;;;;;;5054630;28;1305;-75
2022/05/29 15:05:14;;;;;;;;;;;19.50;68.00;;;;;;5054934;28;1145;-75
2022/05/29 15:10:30;;;;;;;;;;;19.40;67.90;;;;;;5057069;28;1973;-75
2022/05/29 15:12:55;;;;;;;;;;;19.50;68.00;;;;;;5042896;28;1293;-74
2022/05/29 15:15:23;;;;;;;;;;;19.40;68.00;;;;;;5034700;28;1469;-75
2022/05/29 15:17:49;;;;;;;;;;;19.50;68.00;;;;;;5036420;28;1131;-75
2022/05/29 15:25:54;;;;;;;;;;;19.50;68.00;;;;;;5056315;28;1091;-75
2022/05/29 15:28:20;;;;;;;;;;;19.50;68.10;;;;;;5052552;28;848;-73
2022/05/29 15:30:45;;;;;;;;;;;19.40;68.00;;;;;;5025158;28;1955;-72
2022/05/29 15:33:11;;;;;;;;;;;19.50;68.00;;;;;;4998459;28;1361;-71